sensor_id;sensor_type;location;lat;lon;timestamp;pressure;altitude;pressure_sealevel;temperature
41940;BMP180;23057;48.554;14.454;2023-07-16T00:01:43;93371.00;;;29.30
41940;BMP180;23057;48.554;14.454;2023-07-16T00:04:14;93371.00;;;29.20
41940;BMP180;23057;48.554;14.454;2023-07-16T00:06:46;93376.00;;;29.10
41940;BMP180;23057;48.554;14.454;2023-07-16T00:09:17;93379.00;;;29.10
41940;BMP180;23057;48.554;14.454;2023-07-16T00:11:47;93375.00;;;29.10
41940;BMP180;23057;48.554;14.454;2023-07-16T00:14:18;93373.00;;;29.10
41940;BMP180;23057;48.554;14.454;2023-07-16T00:16:49;93369.00;;;29.10
41940;BMP180;23057;48.554;14.454;2023-07-16T00:19:20;93376.00;;;29.00
41940;BMP180;23057;48.554;14.454;2023-07-16T00:21:51;93383.00;;;29.00
41940;BMP180;23057;48.554;14.454;2023-07-16T00:24:21;93376.00;;;28.80
41940;BMP180;23057;48.554;14.454;2023-07-16T00:26:53;93370.00;;;28.70
41940;BMP180;23057;48.554;14.454;2023-07-16T00:29:24;93367.00;;;28.60
41940;BMP180;23057;48.554;14.454;2023-07-16T00:31:55;93367.00;;;28.60
41940;BMP180;23057;48.554;14.454;2023-07-16T00:34:25;93366.00;;;28.50
41940;BMP180;23057;48.554;14.454;2023-07-16T00:36:56;93365.00;;;28.40
41940;BMP180;23057;48.554;14.454;2023-07-16T00:39:31;93361.00;;;28.20
41940;BMP180;23057;48.554;14.454;2023-07-16T00:42:03;93358.00;;;28.20
41940;BMP180;23057;48.554;14.454;2023-07-16T00:44:34;93352.00;;;28.10
41940;BMP180;23057;48.554;14.454;2023-07-16T00:47:05;93355.00;;;28.10
41940;BMP180;23057;48.554;14.454;2023-07-16T00:49:37;93359.00;;;28.10
41940;BMP180;23057;48.554;14.454;2023-07-16T00:52:16;93355.00;;;28.10
41940;BMP180;23057;48.554;14.454;2023-07-16T00:54:49;93352.00;;;28.10
41940;BMP180;23057;48.554;14.454;2023-07-16T00:57:20;93356.00;;;28.10
41940;BMP180;23057;48.554;14.454;2023-07-16T00:59:51;93357.00;;;28.10
41940;BMP180;23057;48.554;14.454;2023-07-16T01:02:22;93363.00;;;28.10
41940;BMP180;23057;48.554;14.454;2023-07-16T01:04:53;93372.00;;;27.90
41940;BMP180;23057;48.554;14.454;2023-07-16T01:07:26;93371.00;;;27.80
41940;BMP180;23057;48.554;14.454;2023-07-16T01:10:00;93375.00;;;27.70
41940;BMP180;23057;48.554;14.454;2023-07-16T01:12:32;93377.00;;;27.60
41940;BMP180;23057;48.554;14.454;2023-07-16T01:15:04;93375.00;;;27.50
41940;BMP180;23057;48.554;14.454;2023-07-16T01:17:36;93368.00;;;27.40
41940;BMP180;23057;48.554;14.454;2023-07-16T01:20:07;93374.00;;;27.40
41940;BMP180;23057;48.554;14.454;2023-07-16T01:22:52;93375.00;;;27.40
41940;BMP180;23057;48.554;14.454;2023-07-16T01:29:45;93372.00;;;27.20
41940;BMP180;23057;48.554;14.454;2023-07-16T01:32:23;93371.00;;;27.20
41940;BMP180;23057;48.554;14.454;2023-07-16T01:34:55;93378.00;;;27.20
41940;BMP180;23057;48.554;14.454;2023-07-16T01:37:27;93370.00;;;27.20
41940;BMP180;23057;48.554;14.454;2023-07-16T01:39:58;93382.00;;;27.20
41940;BMP180;23057;48.554;14.454;2023-07-16T01:42:30;93381.00;;;27.20
41940;BMP180;23057;48.554;14.454;2023-07-16T01:45:01;93389.00;;;27.20
41940;BMP180;23057;48.554;14.454;2023-07-16T01:50:29;93399.00;;;27.20
41940;BMP180;23057;48.554;14.454;2023-07-16T01:53:00;93409.00;;;27.20
41940;BMP180;23057;48.554;14.454;2023-07-16T01:55:31;93413.00;;;27.20
41940;BMP180;23057;48.554;14.454;2023-07-16T01:58:02;93413.00;;;27.10
41940;BMP180;23057;48.554;14.454;2023-07-16T02:00:33;93422.00;;;27.10
41940;BMP180;23057;48.554;14.454;2023-07-16T02:03:04;93418.00;;;27.00
41940;BMP180;23057;48.554;14.454;2023-07-16T02:05:35;93421.00;;;27.00
41940;BMP180;23057;48.554;14.454;2023-07-16T02:08:06;93427.00;;;27.00
41940;BMP180;23057;48.554;14.454;2023-07-16T02:10:37;93418.00;;;27.00
41940;BMP180;23057;48.554;14.454;2023-07-16T02:13:07;93420.00;;;27.00
41940;BMP180;23057;48.554;14.454;2023-07-16T02:15:38;93423.00;;;26.90
41940;BMP180;23057;48.554;14.454;2023-07-16T02:18:10;93434.00;;;26.80
41940;BMP180;23057;48.554;14.454;2023-07-16T02:20:43;93436.00;;;26.80
41940;BMP180;23057;48.554;14.454;2023-07-16T02:23:14;93451.00;;;26.80
41940;BMP180;23057;48.554;14.454;2023-07-16T02:25:44;93458.00;;;26.70
41940;BMP180;23057;48.554;14.454;2023-07-16T02:28:15;93481.00;;;26.80
41940;BMP180;23057;48.554;14.454;2023-07-16T02:30:46;93486.00;;;26.80
41940;BMP180;23057;48.554;14.454;2023-07-16T02:33:18;93500.00;;;26.80
41940;BMP180;23057;48.554;14.454;2023-07-16T02:35:50;93545.00;;;26.70
41940;BMP180;23057;48.554;14.454;2023-07-16T02:38:22;93559.00;;;26.60
41940;BMP180;23057;48.554;14.454;2023-07-16T02:40:53;93559.00;;;26.40
41940;BMP180;23057;48.554;14.454;2023-07-16T02:43:24;93565.00;;;26.50
41940;BMP180;23057;48.554;14.454;2023-07-16T02:45:54;93580.00;;;26.50
41940;BMP180;23057;48.554;14.454;2023-07-16T02:48:25;93587.00;;;26.60
41940;BMP180;23057;48.554;14.454;2023-07-16T02:50:56;93581.00;;;26.70
41940;BMP180;23057;48.554;14.454;2023-07-16T02:53:27;93598.00;;;26.80
41940;BMP180;23057;48.554;14.454;2023-07-16T02:55:58;93608.00;;;26.80
41940;BMP180;23057;48.554;14.454;2023-07-16T02:58:28;93619.00;;;26.80
41940;BMP180;23057;48.554;14.454;2023-07-16T03:00:59;93606.00;;;26.90
41940;BMP180;23057;48.554;14.454;2023-07-16T03:03:30;93612.00;;;27.10
41940;BMP180;23057;48.554;14.454;2023-07-16T03:06:02;93620.00;;;27.20
41940;BMP180;23057;48.554;14.454;2023-07-16T03:08:34;93629.00;;;27.30
41940;BMP180;23057;48.554;14.454;2023-07-16T03:11:05;93623.00;;;27.50
41940;BMP180;23057;48.554;14.454;2023-07-16T03:13:36;93622.00;;;27.60
41940;BMP180;23057;48.554;14.454;2023-07-16T03:16:07;93628.00;;;27.70
41940;BMP180;23057;48.554;14.454;2023-07-16T03:18:37;93634.00;;;27.80
41940;BMP180;23057;48.554;14.454;2023-07-16T03:21:08;93623.00;;;27.90
41940;BMP180;23057;48.554;14.454;2023-07-16T03:23:39;93640.00;;;28.00
41940;BMP180;23057;48.554;14.454;2023-07-16T03:26:10;93650.00;;;28.10
41940;BMP180;23057;48.554;14.454;2023-07-16T03:28:41;93665.00;;;28.20
41940;BMP180;23057;48.554;14.454;2023-07-16T03:31:12;93672.00;;;28.20
41940;BMP180;23057;48.554;14.454;2023-07-16T03:33:42;93666.00;;;28.20
41940;BMP180;23057;48.554;14.454;2023-07-16T03:36:13;93675.00;;;28.30
41940;BMP180;23057;48.554;14.454;2023-07-16T03:38:44;93670.00;;;28.40
41940;BMP180;23057;48.554;14.454;2023-07-16T03:41:15;93675.00;;;28.60
41940;BMP180;23057;48.554;14.454;2023-07-16T03:43:46;93687.00;;;28.70
41940;BMP180;23057;48.554;14.454;2023-07-16T03:46:17;93706.00;;;28.90
41940;BMP180;23057;48.554;14.454;2023-07-16T03:48:47;93730.00;;;29.20
41940;BMP180;23057;48.554;14.454;2023-07-16T03:51:19;93766.00;;;29.30
41940;BMP180;23057;48.554;14.454;2023-07-16T03:53:50;93785.00;;;29.20
41940;BMP180;23057;48.554;14.454;2023-07-16T03:56:21;93799.00;;;29.20
41940;BMP180;23057;48.554;14.454;2023-07-16T03:58:52;93802.00;;;29.20
41940;BMP180;23057;48.554;14.454;2023-07-16T04:01:23;93805.00;;;29.30
41940;BMP180;23057;48.554;14.454;2023-07-16T04:03:54;93815.00;;;29.40
41940;BMP180;23057;48.554;14.454;2023-07-16T04:06:24;93817.00;;;29.40
41940;BMP180;23057;48.554;14.454;2023-07-16T04:08:55;93814.00;;;29.50
41940;BMP180;23057;48.554;14.454;2023-07-16T04:11:26;93822.00;;;29.60
41940;BMP180;23057;48.554;14.454;2023-07-16T04:13:57;93823.00;;;29.70
41940;BMP180;23057;48.554;14.454;2023-07-16T04:16:27;93820.00;;;29.80
41940;BMP180;23057;48.554;14.454;2023-07-16T04:18:58;93818.00;;;29.80
41940;BMP180;23057;48.554;14.454;2023-07-16T04:21:29;93820.00;;;29.90
41940;BMP180;23057;48.554;14.454;2023-07-16T04:24:00;93815.00;;;29.90
41940;BMP180;23057;48.554;14.454;2023-07-16T04:26:32;93824.00;;;30.10
41940;BMP180;23057;48.554;14.454;2023-07-16T04:29:03;93833.00;;;30.20
41940;BMP180;23057;48.554;14.454;2023-07-16T04:31:34;93837.00;;;30.30
41940;BMP180;23057;48.554;14.454;2023-07-16T04:34:05;93852.00;;;30.50
41940;BMP180;23057;48.554;14.454;2023-07-16T04:36:36;93854.00;;;30.60
41940;BMP180;23057;48.554;14.454;2023-07-16T04:39:06;93861.00;;;30.70
41940;BMP180;23057;48.554;14.454;2023-07-16T04:41:37;93855.00;;;30.80
41940;BMP180;23057;48.554;14.454;2023-07-16T04:44:08;93862.00;;;30.80
41940;BMP180;23057;48.554;14.454;2023-07-16T04:46:39;93874.00;;;30.80
41940;BMP180;23057;48.554;14.454;2023-07-16T04:49:10;93867.00;;;30.80
41940;BMP180;23057;48.554;14.454;2023-07-16T04:51:41;93880.00;;;30.90
41940;BMP180;23057;48.554;14.454;2023-07-16T04:54:11;93884.00;;;31.00
41940;BMP180;23057;48.554;14.454;2023-07-16T04:56:42;93899.00;;;31.20
41940;BMP180;23057;48.554;14.454;2023-07-16T04:59:13;93903.00;;;31.20
41940;BMP180;23057;48.554;14.454;2023-07-16T05:01:44;93893.00;;;31.30
41940;BMP180;23057;48.554;14.454;2023-07-16T05:04:15;93897.00;;;31.10
41940;BMP180;23057;48.554;14.454;2023-07-16T05:06:45;93898.00;;;30.90
41940;BMP180;23057;48.554;14.454;2023-07-16T05:09:16;93905.00;;;30.80
41940;BMP180;23057;48.554;14.454;2023-07-16T05:11:47;93895.00;;;30.80
41940;BMP180;23057;48.554;14.454;2023-07-16T05:14:18;93902.00;;;30.80
41940;BMP180;23057;48.554;14.454;2023-07-16T05:16:49;93913.00;;;30.80
41940;BMP180;23057;48.554;14.454;2023-07-16T05:19:19;93922.00;;;30.70
41940;BMP180;23057;48.554;14.454;2023-07-16T05:21:50;93933.00;;;30.70
41940;BMP180;23057;48.554;14.454;2023-07-16T05:24:21;93933.00;;;30.90
41940;BMP180;23057;48.554;14.454;2023-07-16T05:26:52;93940.00;;;30.80
41940;BMP180;23057;48.554;14.454;2023-07-16T05:29:24;93942.00;;;30.70
41940;BMP180;23057;48.554;14.454;2023-07-16T05:31:55;93945.00;;;30.60
41940;BMP180;23057;48.554;14.454;2023-07-16T05:34:26;93941.00;;;30.50
41940;BMP180;23057;48.554;14.454;2023-07-16T05:36:57;93937.00;;;30.50
41940;BMP180;23057;48.554;14.454;2023-07-16T05:39:28;93945.00;;;30.40
41940;BMP180;23057;48.554;14.454;2023-07-16T05:41:58;93955.00;;;30.40
41940;BMP180;23057;48.554;14.454;2023-07-16T05:44:31;93954.00;;;30.40
41940;BMP180;23057;48.554;14.454;2023-07-16T05:47:02;93953.00;;;30.40
41940;BMP180;23057;48.554;14.454;2023-07-16T05:49:34;93961.00;;;30.40
41940;BMP180;23057;48.554;14.454;2023-07-16T05:52:05;93965.00;;;30.40
41940;BMP180;23057;48.554;14.454;2023-07-16T05:54:36;93975.00;;;30.40
41940;BMP180;23057;48.554;14.454;2023-07-16T05:57:07;93982.00;;;30.50
41940;BMP180;23057;48.554;14.454;2023-07-16T05:59:38;93983.00;;;30.50
41940;BMP180;23057;48.554;14.454;2023-07-16T06:02:09;93972.00;;;30.50
41940;BMP180;23057;48.554;14.454;2023-07-16T06:04:40;93982.00;;;30.50
41940;BMP180;23057;48.554;14.454;2023-07-16T06:07:12;93989.00;;;30.50
41940;BMP180;23057;48.554;14.454;2023-07-16T06:09:43;93992.00;;;30.40
41940;BMP180;23057;48.554;14.454;2023-07-16T06:12:14;93994.00;;;30.40
41940;BMP180;23057;48.554;14.454;2023-07-16T06:14:45;94004.00;;;30.50
41940;BMP180;23057;48.554;14.454;2023-07-16T06:17:16;94007.00;;;30.50
41940;BMP180;23057;48.554;14.454;2023-07-16T06:19:46;94007.00;;;30.50
41940;BMP180;23057;48.554;14.454;2023-07-16T06:22:20;94013.00;;;30.40
41940;BMP180;23057;48.554;14.454;2023-07-16T06:24:51;94014.00;;;30.40
41940;BMP180;23057;48.554;14.454;2023-07-16T06:27:22;94014.00;;;30.40
41940;BMP180;23057;48.554;14.454;2023-07-16T06:29:52;94012.00;;;30.30
41940;BMP180;23057;48.554;14.454;2023-07-16T06:32:23;94010.00;;;30.30
41940;BMP180;23057;48.554;14.454;2023-07-16T06:34:54;94013.00;;;30.30
41940;BMP180;23057;48.554;14.454;2023-07-16T06:37:25;94019.00;;;30.20
41940;BMP180;23057;48.554;14.454;2023-07-16T06:39:56;94008.00;;;30.10
41940;BMP180;23057;48.554;14.454;2023-07-16T06:42:27;94009.00;;;30.00
41940;BMP180;23057;48.554;14.454;2023-07-16T06:44:58;94002.00;;;29.90
41940;BMP180;23057;48.554;14.454;2023-07-16T06:47:29;94006.00;;;29.80
41940;BMP180;23057;48.554;14.454;2023-07-16T06:49:59;94006.00;;;29.80
41940;BMP180;23057;48.554;14.454;2023-07-16T06:52:30;94007.00;;;29.80
41940;BMP180;23057;48.554;14.454;2023-07-16T06:55:01;94008.00;;;29.80
41940;BMP180;23057;48.554;14.454;2023-07-16T06:57:32;94009.00;;;29.80
41940;BMP180;23057;48.554;14.454;2023-07-16T07:00:03;94015.00;;;29.80
41940;BMP180;23057;48.554;14.454;2023-07-16T07:02:35;94013.00;;;29.80
41940;BMP180;23057;48.554;14.454;2023-07-16T07:05:07;94010.00;;;29.80
41940;BMP180;23057;48.554;14.454;2023-07-16T07:07:38;94005.00;;;29.80
41940;BMP180;23057;48.554;14.454;2023-07-16T07:10:09;94015.00;;;29.90
41940;BMP180;23057;48.554;14.454;2023-07-16T07:12:40;94001.00;;;30.00
41940;BMP180;23057;48.554;14.454;2023-07-16T07:15:11;94008.00;;;30.00
41940;BMP180;23057;48.554;14.454;2023-07-16T07:17:42;94017.00;;;30.10
41940;BMP180;23057;48.554;14.454;2023-07-16T07:20:13;94022.00;;;30.20
41940;BMP180;23057;48.554;14.454;2023-07-16T07:22:44;94019.00;;;30.30
41940;BMP180;23057;48.554;14.454;2023-07-16T07:25:15;94024.00;;;30.40
41940;BMP180;23057;48.554;14.454;2023-07-16T07:27:46;94021.00;;;30.40
41940;BMP180;23057;48.554;14.454;2023-07-16T07:30:17;94025.00;;;30.50
41940;BMP180;23057;48.554;14.454;2023-07-16T07:32:48;94026.00;;;30.70
41940;BMP180;23057;48.554;14.454;2023-07-16T07:35:19;94027.00;;;30.90
41940;BMP180;23057;48.554;14.454;2023-07-16T07:37:49;94023.00;;;31.00
41940;BMP180;23057;48.554;14.454;2023-07-16T07:40:20;94036.00;;;31.10
41940;BMP180;23057;48.554;14.454;2023-07-16T07:42:51;94024.00;;;31.20
41940;BMP180;23057;48.554;14.454;2023-07-16T07:45:24;94030.00;;;31.30
41940;BMP180;23057;48.554;14.454;2023-07-16T07:47:54;94028.00;;;31.30
41940;BMP180;23057;48.554;14.454;2023-07-16T07:50:25;94040.00;;;31.30
41940;BMP180;23057;48.554;14.454;2023-07-16T07:52:56;94040.00;;;31.30
41940;BMP180;23057;48.554;14.454;2023-07-16T07:55:27;94038.00;;;31.20
41940;BMP180;23057;48.554;14.454;2023-07-16T07:57:58;94033.00;;;31.20
41940;BMP180;23057;48.554;14.454;2023-07-16T08:00:28;94042.00;;;31.30
41940;BMP180;23057;48.554;14.454;2023-07-16T08:02:59;94039.00;;;31.40
41940;BMP180;23057;48.554;14.454;2023-07-16T08:05:31;94047.00;;;31.50
41940;BMP180;23057;48.554;14.454;2023-07-16T08:08:02;94048.00;;;31.60
41940;BMP180;23057;48.554;14.454;2023-07-16T08:10:33;94041.00;;;31.70
41940;BMP180;23057;48.554;14.454;2023-07-16T08:13:04;94040.00;;;31.80
41940;BMP180;23057;48.554;14.454;2023-07-16T08:15:35;94044.00;;;32.10
41940;BMP180;23057;48.554;14.454;2023-07-16T08:18:05;94045.00;;;32.20
41940;BMP180;23057;48.554;14.454;2023-07-16T08:20:37;94041.00;;;32.30
41940;BMP180;23057;48.554;14.454;2023-07-16T08:23:08;94039.00;;;32.30
41940;BMP180;23057;48.554;14.454;2023-07-16T08:25:38;94047.00;;;32.50
41940;BMP180;23057;48.554;14.454;2023-07-16T08:28:09;94042.00;;;32.70
41940;BMP180;23057;48.554;14.454;2023-07-16T08:30:42;94033.00;;;32.90
41940;BMP180;23057;48.554;14.454;2023-07-16T08:33:12;94034.00;;;33.00
41940;BMP180;23057;48.554;14.454;2023-07-16T08:35:44;94033.00;;;33.00
41940;BMP180;23057;48.554;14.454;2023-07-16T08:38:16;94046.00;;;33.20
41940;BMP180;23057;48.554;14.454;2023-07-16T08:40:50;94040.00;;;33.30
41940;BMP180;23057;48.554;14.454;2023-07-16T08:43:22;94035.00;;;33.50
41940;BMP180;23057;48.554;14.454;2023-07-16T08:45:53;94037.00;;;33.60
41940;BMP180;23057;48.554;14.454;2023-07-16T08:48:24;94046.00;;;33.70
41940;BMP180;23057;48.554;14.454;2023-07-16T08:51:02;94045.00;;;33.80
41940;BMP180;23057;48.554;14.454;2023-07-16T08:53:33;94038.00;;;33.90
41940;BMP180;23057;48.554;14.454;2023-07-16T08:56:04;94052.00;;;33.90
41940;BMP180;23057;48.554;14.454;2023-07-16T08:58:37;94044.00;;;33.90
41940;BMP180;23057;48.554;14.454;2023-07-16T09:01:09;94044.00;;;34.00
41940;BMP180;23057;48.554;14.454;2023-07-16T09:03:40;94045.00;;;34.10
41940;BMP180;23057;48.554;14.454;2023-07-16T09:06:12;94045.00;;;34.20
41940;BMP180;23057;48.554;14.454;2023-07-16T09:08:43;94056.00;;;34.30
41940;BMP180;23057;48.554;14.454;2023-07-16T09:11:13;94055.00;;;34.50
41940;BMP180;23057;48.554;14.454;2023-07-16T09:13:45;94056.00;;;34.70
41940;BMP180;23057;48.554;14.454;2023-07-16T09:16:18;94044.00;;;34.90
41940;BMP180;23057;48.554;14.454;2023-07-16T09:18:51;94053.00;;;35.00
41940;BMP180;23057;48.554;14.454;2023-07-16T09:21:22;94044.00;;;35.00
41940;BMP180;23057;48.554;14.454;2023-07-16T09:23:53;94050.00;;;34.90
41940;BMP180;23057;48.554;14.454;2023-07-16T09:26:24;94049.00;;;34.80
41940;BMP180;23057;48.554;14.454;2023-07-16T09:28:55;94042.00;;;34.90
41940;BMP180;23057;48.554;14.454;2023-07-16T09:31:25;94045.00;;;35.20
41940;BMP180;23057;48.554;14.454;2023-07-16T09:33:57;94042.00;;;35.30
41940;BMP180;23057;48.554;14.454;2023-07-16T09:36:29;94045.00;;;35.30
41940;BMP180;23057;48.554;14.454;2023-07-16T09:39:01;94038.00;;;35.30
41940;BMP180;23057;48.554;14.454;2023-07-16T09:41:31;94046.00;;;35.20
41940;BMP180;23057;48.554;14.454;2023-07-16T09:44:03;94042.00;;;35.30
41940;BMP180;23057;48.554;14.454;2023-07-16T09:46:35;94050.00;;;35.50
41940;BMP180;23057;48.554;14.454;2023-07-16T09:49:07;94049.00;;;35.60
41940;BMP180;23057;48.554;14.454;2023-07-16T09:51:39;94041.00;;;35.60
41940;BMP180;23057;48.554;14.454;2023-07-16T09:54:13;94045.00;;;35.70
41940;BMP180;23057;48.554;14.454;2023-07-16T09:56:55;94047.00;;;35.80
41940;BMP180;23057;48.554;14.454;2023-07-16T09:59:32;94038.00;;;35.90
41940;BMP180;23057;48.554;14.454;2023-07-16T10:02:06;94053.00;;;35.90
41940;BMP180;23057;48.554;14.454;2023-07-16T10:04:40;94053.00;;;36.00
41940;BMP180;23057;48.554;14.454;2023-07-16T10:07:23;94042.00;;;36.20
41940;BMP180;23057;48.554;14.454;2023-07-16T10:09:57;94049.00;;;36.30
41940;BMP180;23057;48.554;14.454;2023-07-16T10:12:29;94039.00;;;36.50
41940;BMP180;23057;48.554;14.454;2023-07-16T10:15:00;94031.00;;;36.60
41940;BMP180;23057;48.554;14.454;2023-07-16T10:17:34;94045.00;;;36.60
41940;BMP180;23057;48.554;14.454;2023-07-16T10:20:08;94043.00;;;36.50
41940;BMP180;23057;48.554;14.454;2023-07-16T10:22:46;94040.00;;;36.40
41940;BMP180;23057;48.554;14.454;2023-07-16T10:27:51;94038.00;;;36.50
41940;BMP180;23057;48.554;14.454;2023-07-16T10:30:23;94037.00;;;36.60
41940;BMP180;23057;48.554;14.454;2023-07-16T10:32:54;94040.00;;;36.80
41940;BMP180;23057;48.554;14.454;2023-07-16T10:35:25;94037.00;;;36.80
41940;BMP180;23057;48.554;14.454;2023-07-16T10:37:56;94045.00;;;36.90
41940;BMP180;23057;48.554;14.454;2023-07-16T10:40:27;94041.00;;;36.90
41940;BMP180;23057;48.554;14.454;2023-07-16T10:42:58;94040.00;;;37.00
41940;BMP180;23057;48.554;14.454;2023-07-16T10:45:29;94044.00;;;37.00
41940;BMP180;23057;48.554;14.454;2023-07-16T10:48:00;94039.00;;;37.10
41940;BMP180;23057;48.554;14.454;2023-07-16T10:50:35;94029.00;;;37.20
41940;BMP180;23057;48.554;14.454;2023-07-16T10:53:06;94036.00;;;37.20
41940;BMP180;23057;48.554;14.454;2023-07-16T10:55:36;94023.00;;;37.30
41940;BMP180;23057;48.554;14.454;2023-07-16T10:58:08;94032.00;;;37.40
41940;BMP180;23057;48.554;14.454;2023-07-16T11:00:39;94032.00;;;37.40
41940;BMP180;23057;48.554;14.454;2023-07-16T11:03:15;94020.00;;;37.40
41940;BMP180;23057;48.554;14.454;2023-07-16T11:05:47;94018.00;;;37.50
41940;BMP180;23057;48.554;14.454;2023-07-16T11:08:26;94019.00;;;37.50
41940;BMP180;23057;48.554;14.454;2023-07-16T11:10:58;94014.00;;;37.60
41940;BMP180;23057;48.554;14.454;2023-07-16T11:13:31;94015.00;;;37.50
41940;BMP180;23057;48.554;14.454;2023-07-16T11:16:11;94015.00;;;37.30
41940;BMP180;23057;48.554;14.454;2023-07-16T11:18:42;94008.00;;;37.10
41940;BMP180;23057;48.554;14.454;2023-07-16T11:21:18;94002.00;;;37.20
41940;BMP180;23057;48.554;14.454;2023-07-16T11:23:50;94002.00;;;37.20
41940;BMP180;23057;48.554;14.454;2023-07-16T11:26:21;94006.00;;;37.00
41940;BMP180;23057;48.554;14.454;2023-07-16T11:28:52;94004.00;;;37.00
41940;BMP180;23057;48.554;14.454;2023-07-16T11:31:23;93994.00;;;37.10
41940;BMP180;23057;48.554;14.454;2023-07-16T11:34:00;94000.00;;;37.10
41940;BMP180;23057;48.554;14.454;2023-07-16T11:36:31;93996.00;;;37.10
41940;BMP180;23057;48.554;14.454;2023-07-16T11:39:02;94001.00;;;37.30
41940;BMP180;23057;48.554;14.454;2023-07-16T11:41:34;93997.00;;;37.30
41940;BMP180;23057;48.554;14.454;2023-07-16T11:44:07;93996.00;;;37.40
41940;BMP180;23057;48.554;14.454;2023-07-16T11:46:40;93989.00;;;37.50
41940;BMP180;23057;48.554;14.454;2023-07-16T11:49:10;93992.00;;;37.60
41940;BMP180;23057;48.554;14.454;2023-07-16T11:51:41;93993.00;;;37.70
41940;BMP180;23057;48.554;14.454;2023-07-16T11:54:14;93998.00;;;37.50
41940;BMP180;23057;48.554;14.454;2023-07-16T11:56:44;93992.00;;;37.30
41940;BMP180;23057;48.554;14.454;2023-07-16T11:59:17;93984.00;;;37.30
41940;BMP180;23057;48.554;14.454;2023-07-16T12:01:51;93987.00;;;37.40
41940;BMP180;23057;48.554;14.454;2023-07-16T12:04:23;93984.00;;;37.50
41940;BMP180;23057;48.554;14.454;2023-07-16T12:06:54;93979.00;;;37.50
41940;BMP180;23057;48.554;14.454;2023-07-16T12:09:24;93983.00;;;37.50
41940;BMP180;23057;48.554;14.454;2023-07-16T12:11:56;93980.00;;;37.50
41940;BMP180;23057;48.554;14.454;2023-07-16T12:14:27;93982.00;;;37.30
41940;BMP180;23057;48.554;14.454;2023-07-16T12:16:58;93981.00;;;37.20
41940;BMP180;23057;48.554;14.454;2023-07-16T12:19:29;93972.00;;;37.30
41940;BMP180;23057;48.554;14.454;2023-07-16T12:22:00;93974.00;;;37.40
41940;BMP180;23057;48.554;14.454;2023-07-16T12:24:33;93970.00;;;37.50
41940;BMP180;23057;48.554;14.454;2023-07-16T12:27:04;93968.00;;;37.70
41940;BMP180;23057;48.554;14.454;2023-07-16T12:29:36;93972.00;;;37.80
41940;BMP180;23057;48.554;14.454;2023-07-16T12:32:07;93963.00;;;37.90
41940;BMP180;23057;48.554;14.454;2023-07-16T12:34:39;93966.00;;;37.90
41940;BMP180;23057;48.554;14.454;2023-07-16T12:37:10;93960.00;;;37.90
41940;BMP180;23057;48.554;14.454;2023-07-16T12:39:40;93964.00;;;37.80
41940;BMP180;23057;48.554;14.454;2023-07-16T12:42:11;93975.00;;;37.80
41940;BMP180;23057;48.554;14.454;2023-07-16T12:44:42;93973.00;;;37.70
41940;BMP180;23057;48.554;14.454;2023-07-16T12:47:13;93978.00;;;37.70
41940;BMP180;23057;48.554;14.454;2023-07-16T12:49:44;93978.00;;;37.70
41940;BMP180;23057;48.554;14.454;2023-07-16T12:52:15;93981.00;;;37.80
41940;BMP180;23057;48.554;14.454;2023-07-16T12:54:45;93967.00;;;37.80
41940;BMP180;23057;48.554;14.454;2023-07-16T12:57:17;93966.00;;;37.80
41940;BMP180;23057;48.554;14.454;2023-07-16T12:59:48;93974.00;;;37.80
41940;BMP180;23057;48.554;14.454;2023-07-16T13:02:19;93965.00;;;37.80
41940;BMP180;23057;48.554;14.454;2023-07-16T13:04:50;93962.00;;;37.80
41940;BMP180;23057;48.554;14.454;2023-07-16T13:07:20;93957.00;;;38.00
41940;BMP180;23057;48.554;14.454;2023-07-16T13:09:51;93947.00;;;38.10
41940;BMP180;23057;48.554;14.454;2023-07-16T13:12:22;93949.00;;;38.10
41940;BMP180;23057;48.554;14.454;2023-07-16T13:14:53;93954.00;;;38.20
41940;BMP180;23057;48.554;14.454;2023-07-16T13:17:23;93963.00;;;38.30
41940;BMP180;23057;48.554;14.454;2023-07-16T13:19:54;93953.00;;;38.40
41940;BMP180;23057;48.554;14.454;2023-07-16T13:22:25;93955.00;;;38.50
41940;BMP180;23057;48.554;14.454;2023-07-16T13:24:56;93959.00;;;38.40
41940;BMP180;23057;48.554;14.454;2023-07-16T13:27:27;93960.00;;;38.40
41940;BMP180;23057;48.554;14.454;2023-07-16T13:29:58;93958.00;;;38.50
41940;BMP180;23057;48.554;14.454;2023-07-16T13:32:28;93950.00;;;38.60
41940;BMP180;23057;48.554;14.454;2023-07-16T13:34:59;93956.00;;;38.60
41940;BMP180;23057;48.554;14.454;2023-07-16T13:37:30;93950.00;;;38.30
41940;BMP180;23057;48.554;14.454;2023-07-16T13:40:01;93942.00;;;38.20
41940;BMP180;23057;48.554;14.454;2023-07-16T13:42:32;93952.00;;;38.20
41940;BMP180;23057;48.554;14.454;2023-07-16T13:45:04;93943.00;;;38.20
41940;BMP180;23057;48.554;14.454;2023-07-16T13:47:36;93941.00;;;38.00
41940;BMP180;23057;48.554;14.454;2023-07-16T13:50:07;93940.00;;;37.90
41940;BMP180;23057;48.554;14.454;2023-07-16T13:52:39;93931.00;;;37.90
41940;BMP180;23057;48.554;14.454;2023-07-16T13:55:10;93937.00;;;38.00
41940;BMP180;23057;48.554;14.454;2023-07-16T13:57:41;93927.00;;;38.00
41940;BMP180;23057;48.554;14.454;2023-07-16T14:00:13;93923.00;;;38.00
41940;BMP180;23057;48.554;14.454;2023-07-16T14:02:46;93926.00;;;38.00
41940;BMP180;23057;48.554;14.454;2023-07-16T14:05:17;93923.00;;;38.00
41940;BMP180;23057;48.554;14.454;2023-07-16T14:07:48;93934.00;;;38.00
41940;BMP180;23057;48.554;14.454;2023-07-16T14:10:20;93929.00;;;37.80
41940;BMP180;23057;48.554;14.454;2023-07-16T14:12:50;93927.00;;;37.70
41940;BMP180;23057;48.554;14.454;2023-07-16T14:15:21;93929.00;;;37.60
41940;BMP180;23057;48.554;14.454;2023-07-16T14:17:53;93923.00;;;37.50
41940;BMP180;23057;48.554;14.454;2023-07-16T14:20:24;93926.00;;;37.40
41940;BMP180;23057;48.554;14.454;2023-07-16T14:22:55;93926.00;;;37.30
41940;BMP180;23057;48.554;14.454;2023-07-16T14:25:26;93921.00;;;37.20
41940;BMP180;23057;48.554;14.454;2023-07-16T14:27:57;93910.00;;;37.10
41940;BMP180;23057;48.554;14.454;2023-07-16T14:30:29;93913.00;;;37.10